createdAt,value
2023-06-15T00:00:58.790Z,99800.59
2023-06-15T00:03:27.181Z,99804.00
2023-06-15T00:05:54.914Z,99806.56
2023-06-15T00:08:22.443Z,99800.69
2023-06-15T00:10:50.125Z,99808.06
2023-06-15T00:13:17.540Z,99809.78
2023-06-15T00:15:44.972Z,99797.94
2023-06-15T00:18:13.725Z,99804.53
2023-06-15T00:20:41.192Z,99801.47
2023-06-15T00:23:10.123Z,99800.41
2023-06-15T00:25:38.338Z,99796.31
2023-06-15T00:28:06.027Z,99798.47
2023-06-15T00:30:33.425Z,99802.94
2023-06-15T00:33:01.292Z,99796.00
2023-06-15T00:35:28.795Z,99796.44
2023-06-15T00:37:56.721Z,99793.97
2023-06-15T00:40:24.654Z,99802.97
2023-06-15T00:42:51.947Z,99791.22
2023-06-15T00:45:19.405Z,99794.94
2023-06-15T00:47:54.228Z,99804.66
2023-06-15T00:50:22.485Z,99795.47
2023-06-15T00:52:50.481Z,99800.81
2023-06-15T00:55:18.651Z,99809.34
2023-06-15T00:57:50.902Z,99803.06
2023-06-15T01:00:19.476Z,99798.06
2023-06-15T01:02:50.501Z,99794.63
2023-06-15T01:05:18.571Z,99801.38
2023-06-15T01:07:47.838Z,99804.75
2023-06-15T01:10:18.971Z,99792.59
2023-06-15T01:12:47.174Z,99788.88
2023-06-15T01:15:15.257Z,99793.69
2023-06-15T01:17:47.019Z,99787.25
2023-06-15T01:20:19.278Z,99792.81
2023-06-15T01:23:06.326Z,99786.28
2023-06-15T01:25:50.313Z,99782.56
2023-06-15T01:28:21.540Z,99790.13
2023-06-15T01:30:50.298Z,99782.31
2023-06-15T01:33:17.972Z,99775.41
2023-06-15T01:35:45.340Z,99783.06
2023-06-15T01:38:13.311Z,99789.25
2023-06-15T01:40:42.056Z,99786.78
2023-06-15T01:43:13.873Z,99785.41
2023-06-15T01:45:42.483Z,99782.75
2023-06-15T01:48:10.124Z,99783.28
2023-06-15T01:50:37.591Z,99785.41
2023-06-15T01:53:05.436Z,99783.28
2023-06-15T01:55:33.806Z,99777.34
2023-06-15T01:58:01.251Z,99781.59
2023-06-15T02:00:29.837Z,99784.44
2023-06-15T02:02:58.461Z,99783.78
2023-06-15T02:05:25.826Z,99785.31
2023-06-15T02:07:53.740Z,99782.94
2023-06-15T02:10:23.611Z,99788.37
2023-06-15T02:12:51.085Z,99787.69
2023-06-15T02:15:20.141Z,99790.47
2023-06-15T02:17:47.697Z,99786.66
2023-06-15T02:20:16.897Z,99786.56
2023-06-15T02:22:45.720Z,99786.41
2023-06-15T02:25:13.761Z,99794.53
2023-06-15T02:27:41.285Z,99799.06
2023-06-15T02:30:09.063Z,99788.97
2023-06-15T02:32:43.371Z,99784.91
2023-06-15T02:37:39.693Z,99788.91
2023-06-15T02:40:08.005Z,99794.91
2023-06-15T02:42:36.257Z,99792.66
2023-06-15T02:45:04.411Z,99789.47
2023-06-15T02:47:32.121Z,99788.91
2023-06-15T02:50:01.057Z,99793.19
2023-06-15T02:52:31.668Z,99791.88
2023-06-15T02:54:59.967Z,99791.00
2023-06-15T02:57:28.235Z,99783.56
2023-06-15T03:00:00.171Z,99792.72
2023-06-15T03:02:28.393Z,99788.47
2023-06-15T03:04:59.374Z,99793.41
2023-06-15T03:07:27.743Z,99780.19
2023-06-15T03:09:56.082Z,99791.25
2023-06-15T03:12:23.666Z,99791.50
2023-06-15T03:14:55.329Z,99790.66
2023-06-15T03:17:23.627Z,99785.75
2023-06-15T03:19:51.026Z,99791.94
2023-06-15T03:22:18.822Z,99788.66
2023-06-15T03:24:46.482Z,99789.22
2023-06-15T03:27:14.450Z,99792.03
2023-06-15T03:29:42.484Z,99790.72
2023-06-15T03:32:10.335Z,99797.69
2023-06-15T03:34:38.568Z,99793.03
2023-06-15T03:37:06.965Z,99800.06
2023-06-15T03:39:34.778Z,99805.13
2023-06-15T03:42:02.724Z,99800.97
2023-06-15T03:44:30.763Z,99812.72
2023-06-15T03:46:58.479Z,99806.97
2023-06-15T03:49:26.045Z,99812.72
2023-06-15T03:51:54.123Z,99805.06
2023-06-15T03:54:22.146Z,99802.53
2023-06-15T03:56:50.496Z,99804.22
2023-06-15T03:59:17.839Z,99803.81
2023-06-15T04:01:45.836Z,99804.66
2023-06-15T04:04:16.215Z,99800.69
2023-06-15T04:06:54.149Z,99805.00
2023-06-15T04:09:22.393Z,99804.88
2023-06-15T04:11:49.697Z,99811.47
2023-06-15T04:14:19.255Z,99805.81
2023-06-15T04:16:47.603Z,99805.06
2023-06-15T04:19:15.382Z,99810.94
2023-06-15T04:21:42.713Z,99809.47
2023-06-15T04:24:10.702Z,99807.44
2023-06-15T04:26:38.524Z,99808.69
2023-06-15T04:29:05.784Z,99817.09
2023-06-15T04:31:35.172Z,99815.47
2023-06-15T04:34:05.882Z,99813.31
2023-06-15T04:36:35.772Z,99817.69
2023-06-15T04:39:05.103Z,99818.53
2023-06-15T04:41:40.824Z,99818.41
2023-06-15T04:44:09.002Z,99819.53
2023-06-15T04:46:41.275Z,99822.19
2023-06-15T04:49:10.915Z,99826.94
2023-06-15T04:51:39.814Z,99828.16
2023-06-15T04:54:07.858Z,99818.53
2023-06-15T04:56:36.115Z,99829.34
2023-06-15T04:59:03.659Z,99826.19
2023-06-15T05:01:31.038Z,99830.09
2023-06-15T05:03:59.824Z,99827.66
2023-06-15T05:06:27.514Z,99826.50
2023-06-15T05:08:56.091Z,99820.94
2023-06-15T05:11:23.857Z,99822.66
2023-06-15T05:13:51.380Z,99818.91
2023-06-15T05:16:19.451Z,99825.13
2023-06-15T05:18:47.858Z,99830.84
2023-06-15T05:21:15.298Z,99836.88
2023-06-15T05:23:43.003Z,99839.09
2023-06-15T05:26:28.893Z,99838.81
2023-06-15T05:28:57.527Z,99844.72
2023-06-15T05:31:25.465Z,99842.59
2023-06-15T05:33:54.242Z,99839.88
2023-06-15T05:38:53.700Z,99844.88
2023-06-15T05:41:21.080Z,99842.72
2023-06-15T05:43:48.575Z,99852.94
2023-06-15T05:46:16.420Z,99852.38
2023-06-15T05:48:44.354Z,99853.63
2023-06-15T05:51:11.857Z,99855.87
2023-06-15T05:53:40.056Z,99854.78
2023-06-15T05:56:07.763Z,99855.31
2023-06-15T05:58:35.199Z,99863.63
2023-06-15T06:01:02.906Z,99861.75
2023-06-15T06:03:31.510Z,99858.97
2023-06-15T06:06:00.676Z,99865.44
2023-06-15T06:08:28.501Z,99861.75
2023-06-15T06:10:56.264Z,99862.97
2023-06-15T06:13:24.268Z,99860.81
2023-06-15T06:15:51.901Z,99870.13
2023-06-15T06:18:19.659Z,99870.72
2023-06-15T06:20:47.421Z,99864.87
2023-06-15T06:23:14.805Z,99867.19
2023-06-15T06:25:42.562Z,99859.09
2023-06-15T06:28:12.587Z,99864.06
2023-06-15T06:30:39.939Z,99862.50
2023-06-15T06:33:07.731Z,99868.03
2023-06-15T06:35:35.085Z,99878.34
2023-06-15T06:38:02.665Z,99863.59
2023-06-15T06:40:30.613Z,99859.34
2023-06-15T06:42:58.416Z,99861.47
2023-06-15T06:45:29.253Z,99864.37
2023-06-15T06:47:58.198Z,99868.47
2023-06-15T06:50:25.921Z,99860.38
2023-06-15T06:52:53.277Z,99863.16
2023-06-15T06:55:21.213Z,99867.69
2023-06-15T06:57:48.606Z,99859.03
2023-06-15T07:00:16.964Z,99863.50
2023-06-15T07:02:45.268Z,99853.72
2023-06-15T07:05:13.059Z,99853.56
2023-06-15T07:07:40.583Z,99859.97
2023-06-15T07:10:08.561Z,99851.97
2023-06-15T07:12:36.122Z,99850.00
2023-06-15T07:15:04.342Z,99850.59
2023-06-15T07:17:32.954Z,99848.66
2023-06-15T07:20:00.462Z,99846.72
2023-06-15T07:22:27.853Z,99850.56
2023-06-15T07:24:55.967Z,99848.13
2023-06-15T07:27:23.323Z,99855.19
2023-06-15T07:29:50.702Z,99848.87
2023-06-15T07:32:18.345Z,99840.06
2023-06-15T07:34:46.108Z,99844.69
2023-06-15T07:37:13.731Z,99839.47
2023-06-15T07:39:41.531Z,99841.09
2023-06-15T07:42:18.215Z,99840.06
2023-06-15T07:44:46.166Z,99826.09
2023-06-15T07:47:15.552Z,99830.59
2023-06-15T07:49:46.828Z,99825.16
2023-06-15T07:52:16.519Z,99830.91
2023-06-15T07:54:43.914Z,99817.41
2023-06-15T07:57:11.436Z,99819.94
2023-06-15T07:59:39.252Z,99829.22
2023-06-15T08:02:08.772Z,99826.50
2023-06-15T08:04:36.473Z,99818.19
2023-06-15T08:07:04.234Z,99826.53
2023-06-15T08:09:31.564Z,99825.50
2023-06-15T08:11:59.473Z,99823.81
2023-06-15T08:14:26.934Z,99823.16
2023-06-15T08:16:54.238Z,99822.00
2023-06-15T08:19:21.898Z,99827.94
2023-06-15T08:21:49.506Z,99827.59
2023-06-15T08:24:17.863Z,99825.72
2023-06-15T08:26:45.785Z,99822.69
2023-06-15T08:29:23.225Z,99818.06
2023-06-15T08:31:52.208Z,99827.22
2023-06-15T08:34:19.914Z,99824.34
2023-06-15T08:36:47.811Z,99822.12
2023-06-15T08:39:32.554Z,99824.19
2023-06-15T08:41:59.830Z,99818.75
2023-06-15T08:44:27.760Z,99819.69
2023-06-15T08:46:57.289Z,99821.16
2023-06-15T08:49:25.566Z,99826.78
2023-06-15T08:51:53.237Z,99819.00
2023-06-15T08:54:24.896Z,99813.69
2023-06-15T08:56:52.456Z,99812.84
2023-06-15T08:59:19.829Z,99807.69
2023-06-15T09:01:47.280Z,99800.56
2023-06-15T09:04:14.920Z,99803.69
2023-06-15T09:06:42.591Z,99794.97
2023-06-15T09:09:10.850Z,99805.03
2023-06-15T09:11:42.873Z,99794.50
2023-06-15T09:14:10.740Z,99799.59
2023-06-15T09:16:39.066Z,99805.50
2023-06-15T09:19:13.318Z,99796.09
2023-06-15T09:21:42.635Z,99797.72
2023-06-15T09:24:23.328Z,99794.75
2023-06-15T09:26:55.889Z,99794.06
2023-06-15T09:29:30.004Z,99792.84
2023-06-15T09:31:57.810Z,99788.31
2023-06-15T09:34:25.274Z,99789.69
2023-06-15T09:36:53.075Z,99788.63
2023-06-15T09:39:24.591Z,99786.34
2023-06-15T09:41:55.449Z,99790.94
2023-06-15T09:44:23.597Z,99782.56
2023-06-15T09:46:52.487Z,99776.00
2023-06-15T09:49:21.317Z,99776.69
2023-06-15T09:51:50.328Z,99776.25
2023-06-15T09:54:18.873Z,99772.41
2023-06-15T09:56:46.860Z,99772.00
2023-06-15T09:59:15.717Z,99769.59
2023-06-15T10:01:46.734Z,99770.81
2023-06-15T10:04:14.787Z,99769.94
2023-06-15T10:06:42.581Z,99766.66
2023-06-15T10:09:10.890Z,99762.66
2023-06-15T10:11:39.298Z,99764.59
2023-06-15T10:14:28.803Z,99765.84
2023-06-15T10:16:58.825Z,99764.53
2023-06-15T10:19:26.493Z,99751.69
2023-06-15T10:21:53.737Z,99755.97
2023-06-15T10:24:22.737Z,99756.22
2023-06-15T10:26:50.153Z,99755.78
2023-06-15T10:29:18.016Z,99755.38
2023-06-15T10:31:51.032Z,99761.78
2023-06-15T10:34:37.102Z,99762.63
2023-06-15T10:37:06.761Z,99756.78
2023-06-15T10:39:38.269Z,99760.75
2023-06-15T10:42:09.298Z,99757.56
2023-06-15T10:44:36.788Z,99756.53
2023-06-15T10:47:14.115Z,99750.50
2023-06-15T10:49:48.549Z,99744.31
2023-06-15T10:52:16.008Z,99754.91
2023-06-15T10:54:44.334Z,99750.66
2023-06-15T10:57:11.906Z,99747.47
2023-06-15T10:59:40.097Z,99743.19
2023-06-15T11:02:26.615Z,99744.78
2023-06-15T11:04:54.182Z,99738.00
2023-06-15T11:07:28.798Z,99733.06
2023-06-15T11:09:59.216Z,99742.59
2023-06-15T11:13:05.972Z,99746.62
2023-06-15T11:15:41.791Z,99742.34
2023-06-15T11:18:27.125Z,99729.25
2023-06-15T11:20:56.174Z,99741.84
2023-06-15T11:23:26.709Z,99743.13
2023-06-15T11:26:03.582Z,99750.81
2023-06-15T11:28:38.507Z,99736.84
2023-06-15T11:31:08.641Z,99746.31
2023-06-15T11:33:38.072Z,99743.41
2023-06-15T11:36:08.842Z,99737.22
2023-06-15T11:38:37.702Z,99736.75
2023-06-15T11:41:05.825Z,99741.59
2023-06-15T11:43:38.224Z,99733.84
2023-06-15T11:46:07.987Z,99734.09
2023-06-15T11:48:35.398Z,99735.84
2023-06-15T11:51:02.699Z,99728.22
2023-06-15T11:53:30.227Z,99723.66
2023-06-15T11:55:57.702Z,99721.78
2023-06-15T11:58:24.997Z,99715.19
2023-06-15T12:00:53.173Z,99716.81
2023-06-15T12:03:20.915Z,99717.47
2023-06-15T12:05:56.918Z,99714.16
2023-06-15T12:08:41.663Z,99699.81
2023-06-15T12:11:09.812Z,99710.38
2023-06-15T12:13:41.330Z,99699.78
2023-06-15T12:16:10.416Z,99698.41
2023-06-15T12:18:40.367Z,99701.91
2023-06-15T12:21:08.049Z,99695.16
2023-06-15T12:23:38.414Z,99689.84
2023-06-15T12:26:07.292Z,99692.44
2023-06-15T12:28:34.831Z,99689.03
2023-06-15T12:31:04.954Z,99694.13
2023-06-15T12:33:44.117Z,99693.03
2023-06-15T12:36:12.396Z,99687.03
2023-06-15T12:38:43.802Z,99688.41
2023-06-15T12:41:16.623Z,99678.63
2023-06-15T12:43:46.519Z,99687.38
2023-06-15T12:46:14.276Z,99681.13
2023-06-15T12:48:41.820Z,99680.81
2023-06-15T12:51:09.914Z,99677.88
2023-06-15T12:53:38.544Z,99670.78
2023-06-15T12:56:06.917Z,99677.06
2023-06-15T12:58:35.420Z,99670.25
2023-06-15T13:01:03.333Z,99667.31
2023-06-15T13:03:30.916Z,99666.56
2023-06-15T13:05:58.755Z,99660.50
2023-06-15T13:08:26.464Z,99665.56
2023-06-15T13:10:53.871Z,99660.28
2023-06-15T13:13:21.818Z,99667.38
2023-06-15T13:15:49.829Z,99651.34
2023-06-15T13:18:17.306Z,99652.69
2023-06-15T13:20:45.221Z,99658.75
2023-06-15T13:23:12.417Z,99656.84
2023-06-15T13:25:39.817Z,99657.69
2023-06-15T13:28:08.019Z,99653.62
2023-06-15T13:30:35.930Z,99654.66
2023-06-15T13:33:05.954Z,99643.75
2023-06-15T13:35:33.728Z,99651.81
2023-06-15T13:38:01.384Z,99655.03
2023-06-15T13:40:29.587Z,99646.62
2023-06-15T13:42:57.427Z,99645.72
2023-06-15T13:45:24.878Z,99640.22
2023-06-15T13:47:52.821Z,99642.59
2023-06-15T13:50:21.092Z,99644.47
2023-06-15T13:52:49.894Z,99645.88
2023-06-15T13:55:18.899Z,99645.53
2023-06-15T13:57:47.256Z,99636.19
2023-06-15T14:00:15.565Z,99641.53
2023-06-15T14:02:45.647Z,99634.69
2023-06-15T14:05:14.695Z,99641.06
2023-06-15T14:07:42.394Z,99643.25
2023-06-15T14:10:10.070Z,99633.03
2023-06-15T14:12:37.784Z,99638.28
2023-06-15T14:15:07.741Z,99636.38
2023-06-15T14:17:35.540Z,99634.78
2023-06-15T14:20:03.949Z,99638.91
2023-06-15T14:22:32.152Z,99631.16
2023-06-15T14:24:59.609Z,99630.50
2023-06-15T14:27:27.451Z,99636.41
2023-06-15T14:29:54.752Z,99633.69
2023-06-15T14:32:32.910Z,99635.00
2023-06-15T14:35:00.725Z,99640.19
2023-06-15T14:37:28.169Z,99632.09
2023-06-15T14:39:57.828Z,99631.81
2023-06-15T14:42:32.186Z,99633.34
2023-06-15T14:44:59.505Z,99630.44
2023-06-15T14:47:27.258Z,99632.69
2023-06-15T14:49:54.857Z,99635.00
2023-06-15T14:52:23.309Z,99627.78
2023-06-15T14:55:03.869Z,99635.25
2023-06-15T14:57:31.220Z,99636.53
2023-06-15T14:59:59.198Z,99632.47
2023-06-15T15:02:28.756Z,99621.88
2023-06-15T15:04:56.660Z,99622.09
2023-06-15T15:07:27.954Z,99630.25
2023-06-15T15:09:55.828Z,99619.97
2023-06-15T15:12:23.920Z,99614.22
2023-06-15T15:14:53.471Z,99622.59
2023-06-15T15:17:20.799Z,99618.25
2023-06-15T15:19:48.631Z,99620.50
2023-06-15T15:22:17.305Z,99621.78
2023-06-15T15:24:44.652Z,99620.56
2023-06-15T15:27:12.363Z,99611.94
2023-06-15T15:29:39.727Z,99624.34
2023-06-15T15:32:10.054Z,99619.91
2023-06-15T15:34:43.561Z,99612.66
2023-06-15T15:37:11.080Z,99612.00
2023-06-15T15:39:38.792Z,99615.13
2023-06-15T15:42:09.404Z,99616.81
2023-06-15T15:44:36.746Z,99623.22
2023-06-15T15:47:06.176Z,99617.69
2023-06-15T15:49:33.726Z,99618.69
2023-06-15T15:52:01.030Z,99609.50
2023-06-15T15:54:29.355Z,99617.16
2023-06-15T15:56:56.861Z,99615.44
2023-06-15T15:59:24.328Z,99612.03
2023-06-15T16:01:55.039Z,99616.31
2023-06-15T16:04:22.945Z,99609.25
2023-06-15T16:06:51.154Z,99611.91
2023-06-15T16:09:18.506Z,99609.63
2023-06-15T16:11:46.270Z,99605.91
2023-06-15T16:14:13.991Z,99610.69
2023-06-15T16:16:41.377Z,99602.53
2023-06-15T16:19:09.290Z,99608.16
2023-06-15T16:21:37.381Z,99599.50
2023-06-15T16:24:05.130Z,99606.09
2023-06-15T16:26:32.749Z,99602.56
2023-06-15T16:29:00.314Z,99600.53
2023-06-15T16:31:27.945Z,99608.06
2023-06-15T16:33:55.842Z,99601.03
2023-06-15T16:36:23.330Z,99599.94
2023-06-15T16:38:50.694Z,99604.69
2023-06-15T16:41:18.335Z,99601.56
2023-06-15T16:43:45.654Z,99601.19
2023-06-15T16:46:13.102Z,99596.53
2023-06-15T16:48:41.322Z,99599.38
2023-06-15T16:51:08.976Z,99602.41
2023-06-15T16:53:36.750Z,99603.78
2023-06-15T16:56:04.550Z,99603.13
2023-06-15T16:58:31.991Z,99614.28
2023-06-15T17:00:59.341Z,99611.56
2023-06-15T17:03:27.862Z,99611.44
2023-06-15T17:05:55.857Z,99615.72
2023-06-15T17:08:23.229Z,99614.63
2023-06-15T17:10:50.884Z,99616.34
2023-06-15T17:13:19.249Z,99612.41
2023-06-15T17:15:46.781Z,99611.72
2023-06-15T17:18:14.714Z,99614.69
2023-06-15T17:20:42.128Z,99613.00
2023-06-15T17:23:09.638Z,99618.00
2023-06-15T17:25:37.586Z,99617.69
2023-06-15T17:28:05.134Z,99612.03
2023-06-15T17:30:33.294Z,99608.38
2023-06-15T17:33:01.074Z,99614.41
2023-06-15T17:35:29.248Z,99609.00
2023-06-15T17:37:56.671Z,99609.72
2023-06-15T17:40:28.295Z,99605.94
2023-06-15T17:42:56.119Z,99605.69
2023-06-15T17:45:23.710Z,99607.28
2023-06-15T17:47:51.296Z,99610.91
2023-06-15T17:50:18.940Z,99608.16
2023-06-15T17:52:47.181Z,99609.53
2023-06-15T17:55:15.165Z,99614.94
2023-06-15T17:57:42.590Z,99613.34
2023-06-15T18:00:10.704Z,99619.97
2023-06-15T18:02:40.215Z,99622.34
2023-06-15T18:05:09.224Z,99622.88
2023-06-15T18:07:38.817Z,99621.31
2023-06-15T18:10:07.353Z,99626.75
2023-06-15T18:12:34.581Z,99618.81
2023-06-15T18:15:01.973Z,99623.00
2023-06-15T18:17:29.809Z,99615.41
2023-06-15T18:19:57.501Z,99621.84
2023-06-15T18:22:24.873Z,99618.34
2023-06-15T18:24:53.014Z,99625.09
2023-06-15T18:27:20.559Z,99621.03
2023-06-15T18:29:51.389Z,99624.59
2023-06-15T18:32:19.277Z,99622.72
2023-06-15T18:34:50.990Z,99622.41
2023-06-15T18:37:20.256Z,99623.56
2023-06-15T18:39:50.780Z,99622.84
2023-06-15T18:42:18.013Z,99627.94
2023-06-15T18:44:45.820Z,99628.09
2023-06-15T18:47:17.099Z,99632.97
2023-06-15T18:49:51.099Z,99630.56
2023-06-15T18:52:19.268Z,99626.16
2023-06-15T18:54:47.099Z,99629.44
2023-06-15T18:57:14.862Z,99631.75
2023-06-15T18:59:44.834Z,99639.72
2023-06-15T19:02:22.797Z,99632.72
2023-06-15T19:04:51.027Z,99637.16
2023-06-15T19:07:20.341Z,99642.66
2023-06-15T19:09:47.933Z,99642.44
2023-06-15T19:12:15.786Z,99647.47
2023-06-15T19:14:43.094Z,99653.16
2023-06-15T19:17:11.134Z,99648.25
2023-06-15T19:19:39.085Z,99658.19
2023-06-15T19:22:06.744Z,99653.25
2023-06-15T19:24:34.769Z,99652.63
2023-06-15T19:27:03.895Z,99656.63
2023-06-15T19:29:34.102Z,99665.00
2023-06-15T19:32:05.756Z,99663.56
2023-06-15T19:34:36.373Z,99671.22
2023-06-15T19:37:04.657Z,99676.34
2023-06-15T19:39:32.550Z,99662.75
2023-06-15T19:42:04.413Z,99675.84
2023-06-15T19:44:37.417Z,99669.22
2023-06-15T19:47:08.064Z,99671.78
2023-06-15T19:49:35.953Z,99666.09
2023-06-15T19:52:03.683Z,99666.59
2023-06-15T19:54:32.924Z,99664.91
2023-06-15T19:57:01.469Z,99662.28
2023-06-15T19:59:28.885Z,99663.69
2023-06-15T20:01:56.495Z,99661.41
2023-06-15T20:04:24.259Z,99664.25
2023-06-15T20:06:51.679Z,99670.94
2023-06-15T20:09:18.991Z,99672.41
2023-06-15T20:11:47.590Z,99667.84
2023-06-15T20:14:15.078Z,99661.28
2023-06-15T20:16:43.490Z,99666.91
2023-06-15T20:19:11.300Z,99663.09
2023-06-15T20:21:38.574Z,99662.81
2023-06-15T20:24:06.205Z,99657.81
2023-06-15T20:26:33.972Z,99667.25
2023-06-15T20:29:01.934Z,99656.75
2023-06-15T20:31:29.346Z,99663.88
2023-06-15T20:34:00.558Z,99654.34
2023-06-15T20:36:27.989Z,99657.81
2023-06-15T20:38:55.466Z,99660.06
2023-06-15T20:41:23.099Z,99655.69
2023-06-15T20:43:50.585Z,99646.31
2023-06-15T20:46:21.532Z,99648.63
2023-06-15T20:48:49.804Z,99649.63
2023-06-15T20:51:17.595Z,99648.50
2023-06-15T20:53:45.236Z,99648.69
2023-06-15T20:56:12.966Z,99646.75
2023-06-15T20:58:40.565Z,99645.03
2023-06-15T21:01:08.147Z,99644.72
2023-06-15T21:03:36.286Z,99638.94
2023-06-15T21:06:03.953Z,99645.06
2023-06-15T21:08:34.765Z,99643.63
2023-06-15T21:11:04.414Z,99642.37
2023-06-15T21:13:35.945Z,99640.94
2023-06-15T21:16:06.768Z,99647.88
2023-06-15T21:18:35.657Z,99640.09
2023-06-15T21:21:04.921Z,99636.00
2023-06-15T21:23:34.563Z,99635.16
2023-06-15T21:26:04.510Z,99644.78
2023-06-15T21:28:32.978Z,99645.75
2023-06-15T21:31:00.420Z,99634.31
2023-06-15T21:33:28.226Z,99634.06
2023-06-15T21:35:56.518Z,99637.44
2023-06-15T21:38:27.152Z,99642.25
2023-06-15T21:40:54.597Z,99638.03
2023-06-15T21:43:22.426Z,99635.03
2023-06-15T21:45:52.053Z,99636.47
2023-06-15T21:48:19.570Z,99632.66
2023-06-15T21:50:47.272Z,99631.66
2023-06-15T21:53:14.718Z,99633.50
2023-06-15T21:55:41.972Z,99630.53
2023-06-15T21:58:11.006Z,99640.72
2023-06-15T22:00:38.321Z,99633.19
2023-06-15T22:03:06.086Z,99634.34
2023-06-15T22:05:33.423Z,99637.56
2023-06-15T22:08:00.794Z,99629.97
2023-06-15T22:10:28.329Z,99630.94
2023-06-15T22:12:55.740Z,99625.25
2023-06-15T22:15:23.123Z,99629.34
2023-06-15T22:17:51.394Z,99624.94
2023-06-15T22:20:18.929Z,99630.03
2023-06-15T22:22:46.560Z,99617.88
2023-06-15T22:25:14.585Z,99615.91
2023-06-15T22:27:42.416Z,99620.97
2023-06-15T22:30:09.929Z,99619.53
2023-06-15T22:32:37.567Z,99612.47
2023-06-15T22:35:05.064Z,99611.38
2023-06-15T22:37:32.508Z,99614.72
2023-06-15T22:40:00.161Z,99606.94
2023-06-15T22:42:27.620Z,99611.78
2023-06-15T22:44:54.934Z,99605.66
2023-06-15T22:47:27.043Z,99604.25
2023-06-15T22:49:54.763Z,99605.53
2023-06-15T22:52:23.231Z,99596.03
2023-06-15T22:54:51.025Z,99593.06
2023-06-15T22:57:19.102Z,99594.28
2023-06-15T22:59:46.932Z,99588.41
2023-06-15T23:02:17.552Z,99588.00
2023-06-15T23:04:45.490Z,99588.09
2023-06-15T23:07:13.821Z,99588.22
2023-06-15T23:09:41.533Z,99585.25
2023-06-15T23:12:11.271Z,99583.31
2023-06-15T23:14:41.406Z,99574.84
2023-06-15T23:17:09.364Z,99579.06
2023-06-15T23:19:37.461Z,99572.00
2023-06-15T23:22:06.840Z,99573.72
2023-06-15T23:24:34.793Z,99573.59
2023-06-15T23:27:04.014Z,99571.84
2023-06-15T23:29:36.366Z,99566.91
2023-06-15T23:32:04.384Z,99562.38
2023-06-15T23:34:31.772Z,99564.09
2023-06-15T23:37:00.090Z,99557.88
2023-06-15T23:39:27.946Z,99560.28
2023-06-15T23:41:55.582Z,99558.69
2023-06-15T23:44:22.824Z,99557.00
2023-06-15T23:46:50.624Z,99553.75
2023-06-15T23:49:18.115Z,99554.72
2023-06-15T23:51:45.471Z,99549.75
2023-06-15T23:54:13.522Z,99549.66
2023-06-15T23:56:40.809Z,99550.25
2023-06-15T23:59:08.267Z,99547.31
